Time;durP1;ratioP1;P1;durP2;ratioP2;P2;SDS_P1;SDS_P2;PMS_P1;PMS_P2;Temp;Humidity;BMP_temperature;BMP_pressure;BME280_temperature;BME280_humidity;BME280_pressure;Samples;Min_cycle;Max_cycle;Signal;HPM_P1;HPM_P2
2023/04/21 00:03:15;;;;;;;;;;;10.20;76.50;;;;;;8385188;28;19930;-75
2023/04/21 00:22:27;;;;;;;;;;;10.10;80.30;;;;;;8392136;28;20390;-75
2023/04/21 00:26:29;;;;;;;;;;;10.00;80.70;;;;;;8393733;28;19930;-75
2023/04/21 00:30:30;;;;;;;;;;;10.00;77.60;;;;;;8398253;28;19924;-75
2023/04/21 00:34:32;;;;;;;;;;;10.00;80.80;;;;;;8397896;28;20041;-75
2023/04/21 00:38:33;;;;;;;;;;;10.00;79.30;;;;;;8399921;28;20003;-75
2023/04/21 00:42:35;;;;;;;;;;;10.00;80.50;;;;;;8381053;28;19925;-75
2023/04/21 00:46:37;;;;;;;;;;;9.90;80.20;;;;;;8378562;28;19932;-75
2023/04/21 00:50:39;;;;;;;;;;;9.90;85.90;;;;;;8392855;28;19932;-76
2023/04/21 00:54:41;;;;;;;;;;;9.90;83.70;;;;;;8399101;28;19924;-75
2023/04/21 00:58:44;;;;;;;;;;;9.80;81.10;;;;;;8411084;28;19964;-75
2023/04/21 01:02:46;;;;;;;;;;;9.80;86.40;;;;;;8407792;28;19947;-76
2023/04/21 01:27:01;;;;;;;;;;;9.60;83.50;;;;;;8386818;28;19978;-75
2023/04/21 01:31:03;;;;;;;;;;;9.60;89.70;;;;;;8394520;28;19928;-75
2023/04/21 01:35:14;;;;;;;;;;;9.60;88.40;;;;;;8407261;28;19924;-75
2023/04/21 01:39:15;;;;;;;;;;;9.60;89.20;;;;;;8398711;28;19924;-75
2023/04/21 01:43:18;;;;;;;;;;;9.60;90.00;;;;;;8386434;28;19928;-75
2023/04/21 01:47:21;;;;;;;;;;;9.60;88.30;;;;;;8387180;28;19924;-75
2023/04/21 01:51:22;;;;;;;;;;;9.60;90.50;;;;;;8395047;28;19924;-75
2023/04/21 01:55:24;;;;;;;;;;;9.60;90.10;;;;;;8415408;28;19927;-75
2023/04/21 01:59:26;;;;;;;;;;;9.60;86.90;;;;;;8385865;28;19935;-75
2023/04/21 02:03:27;;;;;;;;;;;9.60;88.30;;;;;;8399087;28;19950;-75
2023/04/21 02:07:29;;;;;;;;;;;9.60;89.50;;;;;;8379236;28;19925;-75
2023/04/21 02:11:31;;;;;;;;;;;9.60;89.60;;;;;;8412024;28;19925;-75
2023/04/21 02:15:32;;;;;;;;;;;9.60;90.20;;;;;;8400740;28;19928;-75
2023/04/21 02:19:34;;;;;;;;;;;9.60;90.80;;;;;;8397111;28;19924;-75
2023/04/21 02:23:36;;;;;;;;;;;9.60;90.60;;;;;;8378315;28;20372;-75
2023/04/21 02:27:37;;;;;;;;;;;9.60;86.80;;;;;;8389691;28;19972;-75
2023/04/21 02:31:39;;;;;;;;;;;9.60;88.50;;;;;;8385390;28;20041;-75
2023/04/21 02:35:55;;;;;;;;;;;9.60;88.30;;;;;;8383644;28;20437;-75
2023/04/21 02:39:56;;;;;;;;;;;9.60;85.40;;;;;;8403375;28;19967;-75
2023/04/21 02:43:58;;;;;;;;;;;9.60;87.20;;;;;;8370445;28;19975;-75
2023/04/21 02:47:59;;;;;;;;;;;9.50;90.40;;;;;;8380054;28;19925;-76
2023/04/21 02:52:01;;;;;;;;;;;9.50;90.60;;;;;;8385223;28;20329;-75
2023/04/21 02:56:03;;;;;;;;;;;9.50;89.50;;;;;;8402121;28;19936;-76
2023/04/21 03:00:06;;;;;;;;;;;9.50;88.40;;;;;;8393368;28;19925;-75
2023/04/21 03:04:08;;;;;;;;;;;9.50;86.40;;;;;;8383889;28;19936;-75
2023/04/21 03:08:09;;;;;;;;;;;9.50;88.30;;;;;;8369131;28;19924;-75
2023/04/21 03:12:11;;;;;;;;;;;9.50;90.20;;;;;;8394398;28;20023;-75
2023/04/21 03:16:13;;;;;;;;;;;9.50;90.20;;;;;;8402649;28;19924;-75
2023/04/21 03:20:14;;;;;;;;;;;9.40;92.70;;;;;;8409349;28;19965;-75
2023/04/21 03:24:16;;;;;;;;;;;9.40;92.20;;;;;;8373400;28;19999;-75
2023/04/21 03:28:18;;;;;;;;;;;9.40;90.40;;;;;;8386752;28;20368;-76
2023/04/21 03:32:19;;;;;;;;;;;9.40;89.90;;;;;;8379688;28;19925;-75
2023/04/21 03:36:21;;;;;;;;;;;9.40;89.70;;;;;;8389262;28;19986;-76
2023/04/21 03:40:23;;;;;;;;;;;9.40;87.50;;;;;;8377894;28;20199;-76
2023/04/21 03:44:26;;;;;;;;;;;9.40;86.90;;;;;;8427478;27;20355;-76
2023/04/21 03:48:28;;;;;;;;;;;9.40;89.20;;;;;;8401625;28;19986;-76
2023/04/21 03:52:30;;;;;;;;;;;9.40;90.20;;;;;;8400126;28;20363;-76
2023/04/21 03:56:31;;;;;;;;;;;9.40;90.40;;;;;;8401188;28;20333;-76
2023/04/21 04:00:33;;;;;;;;;;;9.40;90.20;;;;;;8389650;28;20003;-76
2023/04/21 04:04:35;;;;;;;;;;;9.40;93.30;;;;;;8376838;28;19967;-76
2023/04/21 04:08:37;;;;;;;;;;;9.30;92.70;;;;;;8369938;28;19928;-76
2023/04/21 04:12:38;;;;;;;;;;;9.30;94.40;;;;;;8398934;28;20348;-76
2023/04/21 04:16:40;;;;;;;;;;;9.30;92.50;;;;;;8390661;28;19928;-75
2023/04/21 04:20:42;;;;;;;;;;;9.30;96.30;;;;;;8372297;28;19931;-76
2023/04/21 04:24:44;;;;;;;;;;;9.20;95.30;;;;;;8387440;28;19935;-75
2023/04/21 04:28:45;;;;;;;;;;;9.30;94.10;;;;;;8385680;28;19942;-75
2023/04/21 04:32:47;;;;;;;;;;;9.30;93.40;;;;;;8389779;28;20306;-76
2023/04/21 04:36:52;;;;;;;;;;;9.20;95.50;;;;;;8401253;28;19929;-75
2023/04/21 04:40:54;;;;;;;;;;;9.20;93.00;;;;;;8390779;28;20411;-76
2023/04/21 04:44:56;;;;;;;;;;;9.20;93.90;;;;;;8393333;28;20380;-75
2023/04/21 04:48:58;;;;;;;;;;;9.20;93.20;;;;;;8385678;28;19935;-75
2023/04/21 04:53:00;;;;;;;;;;;9.20;95.00;;;;;;8392483;28;19931;-75
2023/04/21 04:57:02;;;;;;;;;;;9.20;94.70;;;;;;8395179;28;19935;-75
2023/04/21 05:01:11;;;;;;;;;;;9.20;93.00;;;;;;8399614;28;19939;-75
2023/04/21 05:05:12;;;;;;;;;;;9.20;95.40;;;;;;8406888;28;20015;-75
2023/04/21 05:09:15;;;;;;;;;;;9.20;93.60;;;;;;8397087;28;19935;-75
2023/04/21 05:13:17;;;;;;;;;;;9.20;96.20;;;;;;8401925;28;19931;-75
2023/04/21 05:17:18;;;;;;;;;;;9.20;94.00;;;;;;8391477;28;19928;-75
2023/04/21 05:21:26;;;;;;;;;;;9.20;93.60;;;;;;8368071;28;19924;-76
2023/04/21 05:25:28;;;;;;;;;;;9.10;94.10;;;;;;8392985;28;20388;-75
2023/04/21 05:29:30;;;;;;;;;;;9.10;96.20;;;;;;8387066;28;19924;-75
2023/04/21 05:33:31;;;;;;;;;;;9.20;94.20;;;;;;8385848;28;19929;-76
2023/04/21 05:37:33;;;;;;;;;;;9.20;95.60;;;;;;8389380;28;19939;-75
2023/04/21 05:41:35;;;;;;;;;;;9.20;95.00;;;;;;8366694;28;19948;-75
2023/04/21 05:45:39;;;;;;;;;;;9.20;95.20;;;;;;8379967;28;20354;-76
2023/04/21 05:49:48;;;;;;;;;;;9.30;98.00;;;;;;8379118;28;19932;-75
2023/04/21 05:53:50;;;;;;;;;;;9.30;96.80;;;;;;8386802;28;19929;-76
2023/04/21 05:57:51;;;;;;;;;;;9.40;99.70;;;;;;8382898;28;20359;-75
2023/04/21 06:01:53;;;;;;;;;;;9.40;98.40;;;;;;8396440;28;19924;-75
2023/04/21 06:05:55;;;;;;;;;;;9.50;99.90;;;;;;8403562;28;20031;-75
2023/04/21 06:09:57;;;;;;;;;;;9.50;99.50;;;;;;8391387;28;19932;-76
2023/04/21 06:13:59;;;;;;;;;;;9.60;98.90;;;;;;8384885;28;19929;-76
2023/04/21 06:18:01;;;;;;;;;;;9.60;99.40;;;;;;8402602;28;19931;-75
2023/04/21 06:22:03;;;;;;;;;;;9.70;99.90;;;;;;8393909;28;20403;-75
2023/04/21 06:26:05;;;;;;;;;;;9.70;99.90;;;;;;8378762;28;19925;-75
2023/04/21 06:30:07;;;;;;;;;;;9.80;99.90;;;;;;8389556;28;19965;-75
2023/04/21 06:34:09;;;;;;;;;;;9.80;99.90;;;;;;8397652;28;20271;-75
2023/04/21 06:38:10;;;;;;;;;;;9.90;99.90;;;;;;8383697;28;20368;-75
2023/04/21 06:42:12;;;;;;;;;;;10.00;99.90;;;;;;8386485;28;19971;-76
2023/04/21 06:46:14;;;;;;;;;;;10.10;99.90;;;;;;8376181;28;19933;-75
2023/04/21 06:50:16;;;;;;;;;;;10.20;99.90;;;;;;8401188;28;19967;-75
2023/04/21 06:54:17;;;;;;;;;;;10.30;99.90;;;;;;8398350;28;19924;-75
2023/04/21 06:58:19;;;;;;;;;;;10.50;99.90;;;;;;8373802;28;19933;-75
2023/04/21 07:02:21;;;;;;;;;;;10.70;99.90;;;;;;8381501;28;19983;-76
2023/04/21 07:06:23;;;;;;;;;;;10.80;99.90;;;;;;8370774;28;19925;-75
2023/04/21 07:10:25;;;;;;;;;;;10.90;99.90;;;;;;8395206;28;19933;-76
2023/04/21 07:14:27;;;;;;;;;;;11.00;99.90;;;;;;8399148;28;19924;-76
2023/04/21 07:18:29;;;;;;;;;;;11.10;99.90;;;;;;8409875;28;19933;-76
2023/04/21 07:22:30;;;;;;;;;;;11.20;99.90;;;;;;8382223;28;20023;-77
2023/04/21 07:26:33;;;;;;;;;;;11.30;99.90;;;;;;8395793;28;19928;-76
2023/04/21 07:30:34;;;;;;;;;;;11.40;99.90;;;;;;8382702;28;19925;-76
2023/04/21 07:34:36;;;;;;;;;;;11.60;99.90;;;;;;8387178;28;19933;-76
2023/04/21 07:38:41;;;;;;;;;;;11.80;99.90;;;;;;8386449;28;19935;-76
2023/04/21 07:42:43;;;;;;;;;;;11.90;99.90;;;;;;8385149;28;19932;-75
2023/04/21 07:46:45;;;;;;;;;;;12.10;99.90;;;;;;8381428;28;20403;-76
2023/04/21 07:50:49;;;;;;;;;;;12.40;99.90;;;;;;8385944;28;19929;-75
2023/04/21 07:54:50;;;;;;;;;;;12.60;99.90;;;;;;8386769;28;19968;-75
2023/04/21 07:58:52;;;;;;;;;;;12.70;99.90;;;;;;8367647;28;19968;-75
2023/04/21 08:02:54;;;;;;;;;;;12.80;99.90;;;;;;8400231;28;19924;-76
2023/04/21 08:06:55;;;;;;;;;;;12.70;99.90;;;;;;8382366;28;19924;-76
2023/04/21 08:10:57;;;;;;;;;;;12.70;99.90;;;;;;8406676;28;19932;-76
2023/04/21 08:15:04;;;;;;;;;;;12.80;99.90;;;;;;8367289;28;19960;-75
2023/04/21 08:19:06;;;;;;;;;;;12.90;99.90;;;;;;8370456;28;19924;-76
2023/04/21 08:23:08;;;;;;;;;;;13.00;99.90;;;;;;8398279;28;19931;-75
2023/04/21 08:27:09;;;;;;;;;;;13.10;99.90;;;;;;8406553;28;19929;-75
2023/04/21 08:31:11;;;;;;;;;;;13.20;99.90;;;;;;8372417;28;19943;-75
2023/04/21 08:35:13;;;;;;;;;;;13.30;99.90;;;;;;8389393;28;20321;-76
2023/04/21 08:39:15;;;;;;;;;;;13.40;99.90;;;;;;8380730;28;20408;-76
2023/04/21 08:43:18;;;;;;;;;;;13.60;99.90;;;;;;8382250;28;19983;-76
2023/04/21 08:47:20;;;;;;;;;;;13.80;99.90;;;;;;8371838;28;19929;-76
2023/04/21 08:51:23;;;;;;;;;;;13.70;99.90;;;;;;8371452;28;19925;-76
2023/04/21 08:55:27;;;;;;;;;;;13.80;99.90;;;;;;8372532;28;19924;-75
2023/04/21 08:59:29;;;;;;;;;;;13.90;99.90;;;;;;8371796;28;19933;-76
2023/04/21 09:03:31;;;;;;;;;;;14.10;99.90;;;;;;8381766;28;19925;-77
2023/04/21 09:07:34;;;;;;;;;;;14.30;99.90;;;;;;8370838;28;19932;-76
2023/04/21 09:11:36;;;;;;;;;;;14.30;99.90;;;;;;8379676;28;19939;-76
2023/04/21 09:15:41;;;;;;;;;;;14.40;99.90;;;;;;8368023;28;19974;-77
2023/04/21 09:19:43;;;;;;;;;;;14.50;99.90;;;;;;8378791;28;19925;-76
2023/04/21 09:23:48;;;;;;;;;;;14.60;99.90;;;;;;8378196;28;19933;-76
2023/04/21 09:27:52;;;;;;;;;;;14.60;99.90;;;;;;8380213;28;19929;-76
2023/04/21 09:31:54;;;;;;;;;;;14.50;99.90;;;;;;8391627;28;19951;-76
2023/04/21 09:35:55;;;;;;;;;;;14.50;99.90;;;;;;8364737;28;19995;-76
2023/04/21 09:39:58;;;;;;;;;;;14.60;99.90;;;;;;8402738;28;19932;-76
2023/04/21 09:44:03;;;;;;;;;;;14.80;99.90;;;;;;8396579;28;19963;-76
2023/04/21 09:48:07;;;;;;;;;;;14.90;99.90;;;;;;8386020;28;20398;-76
2023/04/21 09:52:11;;;;;;;;;;;15.00;99.90;;;;;;8389487;28;19931;-75
2023/04/21 09:56:20;;;;;;;;;;;15.10;99.90;;;;;;8389711;28;19928;-76
2023/04/21 10:00:22;;;;;;;;;;;15.20;99.90;;;;;;8379107;28;19931;-76
2023/04/21 10:04:24;;;;;;;;;;;15.30;99.90;;;;;;8386357;28;20285;-76
2023/04/21 10:08:27;;;;;;;;;;;15.40;99.90;;;;;;8393039;28;20372;-75
2023/04/21 10:12:29;;;;;;;;;;;15.50;99.90;;;;;;8389616;28;20135;-76
2023/04/21 10:16:34;;;;;;;;;;;15.60;99.90;;;;;;8383978;28;19931;-75
2023/04/21 10:20:55;;;;;;;;;;;15.80;99.90;;;;;;8376207;28;20295;-76
2023/04/21 10:24:58;;;;;;;;;;;15.80;99.90;;;;;;8374269;28;20443;-76
2023/04/21 10:29:04;;;;;;;;;;;15.80;99.90;;;;;;8393424;28;19974;-76
2023/04/21 10:33:06;;;;;;;;;;;15.70;99.90;;;;;;8401737;28;19976;-77
2023/04/21 10:37:10;;;;;;;;;;;15.50;99.90;;;;;;8430188;28;19928;-76
2023/04/21 10:41:28;;;;;;;;;;;15.50;99.90;;;;;;8391945;28;19924;-75
2023/04/21 10:45:30;;;;;;;;;;;15.40;99.90;;;;;;8371448;28;19971;-76
2023/04/21 10:49:36;;;;;;;;;;;15.40;99.90;;;;;;8378658;28;20296;-76
2023/04/21 10:53:44;;;;;;;;;;;15.70;99.90;;;;;;8417453;28;19931;-76
2023/04/21 10:57:46;;;;;;;;;;;16.20;99.90;;;;;;8408013;28;19924;-76
2023/04/21 11:01:48;;;;;;;;;;;16.70;99.90;;;;;;8405743;28;19925;-76
2023/04/21 11:05:49;;;;;;;;;;;16.90;99.90;;;;;;8389134;28;20297;-76
2023/04/21 11:09:59;;;;;;;;;;;17.10;99.90;;;;;;8406787;28;19933;-76
2023/04/21 11:14:03;;;;;;;;;;;17.00;99.90;;;;;;8403665;28;19981;-76
2023/04/21 11:18:06;;;;;;;;;;;16.80;99.90;;;;;;8411301;28;20372;-76
2023/04/21 11:22:07;;;;;;;;;;;16.50;99.90;;;;;;8419569;28;20022;-76
2023/04/21 11:26:09;;;;;;;;;;;16.40;99.90;;;;;;8396405;28;19971;-76
2023/04/21 11:30:11;;;;;;;;;;;16.40;99.90;;;;;;8406886;28;19924;-76
2023/04/21 11:34:14;;;;;;;;;;;16.70;99.90;;;;;;8409569;28;20349;-77
2023/04/21 11:38:17;;;;;;;;;;;16.80;99.90;;;;;;8383647;28;19964;-76
2023/04/21 11:42:20;;;;;;;;;;;16.90;99.90;;;;;;8371670;28;20016;-77
2023/04/21 11:46:25;;;;;;;;;;;17.30;99.90;;;;;;8372006;28;19929;-77
2023/04/21 11:50:33;;;;;;;;;;;17.90;99.90;;;;;;8371254;28;19968;-77
2023/04/21 11:54:34;;;;;;;;;;;18.30;99.90;;;;;;8377353;28;19960;-76
2023/04/21 11:58:37;;;;;;;;;;;18.50;99.90;;;;;;8373964;28;20003;-76
2023/04/21 12:02:38;;;;;;;;;;;18.50;99.90;;;;;;8371066;28;19931;-76
2023/04/21 12:06:40;;;;;;;;;;;18.70;99.90;;;;;;8369339;28;19935;-77
2023/04/21 12:10:45;;;;;;;;;;;19.00;99.90;;;;;;8370542;28;19925;-77
2023/04/21 12:14:48;;;;;;;;;;;19.00;99.90;;;;;;8372340;28;19994;-77
2023/04/21 12:18:49;;;;;;;;;;;18.90;99.90;;;;;;8375932;28;20022;-76
2023/04/21 12:22:52;;;;;;;;;;;18.70;99.90;;;;;;8369711;28;19982;-77
2023/04/21 12:26:53;;;;;;;;;;;18.50;99.90;;;;;;8371621;28;19928;-77
2023/04/21 12:30:55;;;;;;;;;;;18.60;99.90;;;;;;8373042;28;19976;-77
2023/04/21 12:34:57;;;;;;;;;;;18.70;99.90;;;;;;8364661;28;19928;-77
2023/04/21 12:38:58;;;;;;;;;;;18.80;99.90;;;;;;8359657;28;19931;-77
2023/04/21 12:43:00;;;;;;;;;;;18.80;99.90;;;;;;8365171;28;19924;-76
2023/04/21 12:47:02;;;;;;;;;;;18.90;99.90;;;;;;8379971;28;19932;-77
2023/04/21 12:51:03;;;;;;;;;;;18.80;99.90;;;;;;8366601;28;19924;-76
2023/04/21 13:15:44;;;;;;;;;;;17.40;99.90;;;;;;8371136;28;19923;-76
2023/04/21 13:19:46;;;;;;;;;;;17.80;99.90;;;;;;8367158;28;20094;-76
2023/04/21 13:33:55;;;;;;;;;;;18.70;99.90;;;;;;8368134;28;20059;-77
2023/04/21 13:37:57;;;;;;;;;;;18.60;99.90;;;;;;8370665;28;20372;-77
2023/04/21 13:42:00;;;;;;;;;;;18.50;99.90;;;;;;8376945;28;20384;-77
2023/04/21 13:46:02;;;;;;;;;;;18.40;99.90;;;;;;8369483;28;20066;-76
2023/04/21 13:50:04;;;;;;;;;;;18.40;99.90;;;;;;8364422;28;19972;-77
2023/04/21 13:54:06;;;;;;;;;;;18.70;99.90;;;;;;8368113;28;19932;-77
2023/04/21 13:58:07;;;;;;;;;;;19.00;99.90;;;;;;8369230;28;20426;-77
2023/04/21 14:02:09;;;;;;;;;;;19.30;99.90;;;;;;8371617;28;19924;-77
2023/04/21 14:06:11;;;;;;;;;;;19.60;99.90;;;;;;8369207;28;19925;-77
2023/04/21 14:10:12;;;;;;;;;;;20.60;99.90;;;;;;8364754;28;19925;-77
2023/04/21 14:14:14;;;;;;;;;;;21.80;99.90;;;;;;8399727;28;19940;-77
2023/04/21 14:18:26;;;;;;;;;;;22.30;99.90;;;;;;8379236;28;20217;-77
2023/04/21 14:27:39;;;;;;;;;;;22.50;99.90;;;;;;8366004;28;19967;-76
2023/04/21 14:31:40;;;;;;;;;;;21.50;99.90;;;;;;8371240;28;19955;-76
2023/04/21 14:35:42;;;;;;;;;;;20.80;99.90;;;;;;8369413;28;19932;-76
2023/04/21 14:39:44;;;;;;;;;;;20.10;99.90;;;;;;8379160;28;19930;-76
2023/04/21 14:43:46;;;;;;;;;;;19.50;99.90;;;;;;8378718;28;19928;-76
2023/04/21 14:47:50;;;;;;;;;;;19.10;99.90;;;;;;8387857;28;20024;-77
2023/04/21 14:51:51;;;;;;;;;;;19.00;99.90;;;;;;8375004;28;19933;-76
2023/04/21 14:55:53;;;;;;;;;;;19.50;99.90;;;;;;8371558;28;19931;-76
2023/04/21 14:59:55;;;;;;;;;;;20.70;99.90;;;;;;8375659;28;19936;-76
2023/04/21 15:03:58;;;;;;;;;;;21.60;99.90;;;;;;8372237;28;20326;-77
2023/04/21 15:08:00;;;;;;;;;;;21.90;99.90;;;;;;8364546;28;19964;-77
2023/04/21 15:12:02;;;;;;;;;;;21.60;99.90;;;;;;8361372;28;20072;-76
2023/04/21 15:16:03;;;;;;;;;;;21.20;99.90;;;;;;8373556;28;19929;-77
2023/04/21 15:20:05;;;;;;;;;;;21.10;99.90;;;;;;8359812;28;20292;-76
2023/04/21 15:24:09;;;;;;;;;;;21.00;99.90;;;;;;8367237;28;20453;-76
2023/04/21 15:28:11;;;;;;;;;;;20.70;99.90;;;;;;8364851;28;19951;-77
2023/04/21 15:32:13;;;;;;;;;;;20.70;99.90;;;;;;8361189;28;19959;-77
2023/04/21 15:36:15;;;;;;;;;;;20.60;99.90;;;;;;8363474;28;20277;-77
2023/04/21 15:40:16;;;;;;;;;;;20.70;99.90;;;;;;8362858;28;19929;-77
2023/04/21 15:44:20;;;;;;;;;;;20.70;99.90;;;;;;8367691;28;19925;-77
2023/04/21 15:48:22;;;;;;;;;;;20.60;99.90;;;;;;8371577;28;19928;-77
2023/04/21 15:52:24;;;;;;;;;;;20.50;99.90;;;;;;8362176;28;20330;-77
2023/04/21 15:56:26;;;;;;;;;;;20.30;99.90;;;;;;8401715;28;19932;-76
2023/04/21 16:00:28;;;;;;;;;;;20.60;99.90;;;;;;8358427;28;20023;-76
2023/04/21 16:04:30;;;;;;;;;;;21.00;99.90;;;;;;8365779;28;19939;-76
2023/04/21 16:08:32;;;;;;;;;;;21.40;99.90;;;;;;8375300;28;20324;-77
2023/04/21 16:12:34;;;;;;;;;;;21.90;99.90;;;;;;8373005;28;19939;-77
2023/04/21 16:16:36;;;;;;;;;;;21.80;99.90;;;;;;8358339;28;19978;-77
2023/04/21 16:20:37;;;;;;;;;;;21.30;99.90;;;;;;8379375;28;19971;-76
2023/04/21 16:24:40;;;;;;;;;;;20.70;99.40;;;;;;8379954;28;20331;-76
2023/04/21 16:28:42;;;;;;;;;;;20.10;99.80;;;;;;8364083;28;20016;-76
2023/04/21 16:32:44;;;;;;;;;;;20.20;99.90;;;;;;8381061;28;19948;-77
2023/04/21 16:36:45;;;;;;;;;;;20.80;99.90;;;;;;8360082;28;19929;-77
2023/04/21 16:40:48;;;;;;;;;;;21.70;99.90;;;;;;8366977;28;19980;-77
2023/04/21 16:44:50;;;;;;;;;;;22.60;99.90;;;;;;8381759;28;20467;-76
2023/04/21 16:48:51;;;;;;;;;;;23.30;99.90;;;;;;8381097;28;19925;-78
2023/04/21 16:52:53;;;;;;;;;;;23.60;98.40;;;;;;8364156;28;19928;-77
2023/04/21 16:56:56;;;;;;;;;;;23.70;99.90;;;;;;8368578;28;19933;-77
2023/04/21 17:00:58;;;;;;;;;;;23.80;99.90;;;;;;8370370;28;19929;-77
2023/04/21 17:04:59;;;;;;;;;;;23.70;99.90;;;;;;8366044;28;19932;-77
2023/04/21 17:09:01;;;;;;;;;;;23.10;99.90;;;;;;8359476;28;20349;-77
2023/04/21 17:13:04;;;;;;;;;;;22.30;98.90;;;;;;8395574;28;20409;-77
2023/04/21 17:17:06;;;;;;;;;;;21.40;98.90;;;;;;8371035;28;19935;-77
2023/04/21 17:21:08;;;;;;;;;;;20.80;98.70;;;;;;8363036;28;19933;-76
2023/04/21 17:25:10;;;;;;;;;;;20.30;98.70;;;;;;8401718;28;20265;-77
2023/04/21 17:29:11;;;;;;;;;;;20.00;98.50;;;;;;8378444;28;20028;-77
2023/04/21 17:33:13;;;;;;;;;;;19.60;98.70;;;;;;8360970;28;19932;-77
2023/04/21 17:37:17;;;;;;;;;;;19.40;98.50;;;;;;8362708;28;19929;-76
2023/04/21 17:41:20;;;;;;;;;;;19.20;98.40;;;;;;8368780;28;19979;-77
2023/04/21 17:45:21;;;;;;;;;;;19.10;98.60;;;;;;8369346;28;20375;-77
2023/04/21 17:49:26;;;;;;;;;;;19.00;98.80;;;;;;8370784;28;19929;-77
2023/04/21 17:53:27;;;;;;;;;;;18.90;98.70;;;;;;8368229;28;19931;-77
2023/04/21 17:57:29;;;;;;;;;;;19.00;98.90;;;;;;8367227;28;19928;-77
2023/04/21 18:01:31;;;;;;;;;;;19.10;98.90;;;;;;8383687;28;19932;-77
2023/04/21 18:05:33;;;;;;;;;;;19.00;98.60;;;;;;8369094;28;19933;-76
2023/04/21 18:09:34;;;;;;;;;;;18.90;98.20;;;;;;8373766;28;19936;-76
2023/04/21 18:13:36;;;;;;;;;;;18.50;98.30;;;;;;8368563;28;20015;-76
2023/04/21 18:17:38;;;;;;;;;;;17.50;97.80;;;;;;8361000;28;19925;-76
2023/04/21 18:21:39;;;;;;;;;;;16.50;97.80;;;;;;8364599;28;19935;-76
2023/04/21 18:25:41;;;;;;;;;;;15.80;96.30;;;;;;8369580;28;19924;-76
2023/04/21 18:29:43;;;;;;;;;;;15.50;96.40;;;;;;8372269;28;20388;-76
2023/04/21 18:33:45;;;;;;;;;;;15.30;95.60;;;;;;8373394;28;19931;-76
2023/04/21 18:37:47;;;;;;;;;;;15.30;96.90;;;;;;8379812;28;20420;-76
2023/04/21 18:41:48;;;;;;;;;;;15.10;96.60;;;;;;8369291;28;19959;-76
2023/04/21 18:45:50;;;;;;;;;;;15.00;97.70;;;;;;8367157;28;19953;-76
2023/04/21 18:49:52;;;;;;;;;;;14.90;98.20;;;;;;8375157;28;19955;-76
2023/04/21 18:53:53;;;;;;;;;;;14.70;97.80;;;;;;8365766;28;20380;-76
2023/04/21 18:57:55;;;;;;;;;;;14.50;98.70;;;;;;8362748;28;19928;-76
2023/04/21 19:01:57;;;;;;;;;;;14.40;99.10;;;;;;8367466;28;19925;-76
2023/04/21 19:05:58;;;;;;;;;;;14.20;98.70;;;;;;8365958;28;19947;-76
2023/04/21 19:10:00;;;;;;;;;;;14.10;97.50;;;;;;8373283;28;20407;-76
2023/04/21 19:14:02;;;;;;;;;;;14.00;98.80;;;;;;8366719;28;20072;-77
2023/04/21 19:18:04;;;;;;;;;;;13.80;98.20;;;;;;8363009;28;19986;-76
2023/04/21 19:22:05;;;;;;;;;;;13.70;98.80;;;;;;8365530;28;19931;-76
2023/04/21 19:26:08;;;;;;;;;;;13.60;98.70;;;;;;8364919;28;19929;-76
2023/04/21 19:30:10;;;;;;;;;;;13.50;98.40;;;;;;8370963;28;20319;-76
2023/04/21 19:34:11;;;;;;;;;;;13.50;97.80;;;;;;8384657;28;19983;-76
2023/04/21 19:38:13;;;;;;;;;;;13.50;97.00;;;;;;8369486;28;19932;-76
2023/04/21 19:42:15;;;;;;;;;;;13.50;97.70;;;;;;8375790;28;20292;-76
2023/04/21 19:46:16;;;;;;;;;;;13.50;98.70;;;;;;8370496;28;19932;-76
2023/04/21 19:50:18;;;;;;;;;;;13.40;98.20;;;;;;8372200;28;20292;-76
2023/04/21 19:54:20;;;;;;;;;;;13.30;98.10;;;;;;8379057;28;21046;-76
2023/04/21 19:58:21;;;;;;;;;;;13.30;98.20;;;;;;8371503;28;19933;-76
2023/04/21 20:02:39;;;;;;;;;;;13.20;97.60;;;;;;8369157;28;20025;-76
2023/04/21 20:06:42;;;;;;;;;;;13.10;98.20;;;;;;8371413;28;20291;-76
2023/04/21 20:10:43;;;;;;;;;;;13.10;98.20;;;;;;8375397;28;20019;-76
2023/04/21 20:14:45;;;;;;;;;;;13.10;96.80;;;;;;8374706;28;20396;-76
2023/04/21 20:18:47;;;;;;;;;;;13.20;98.30;;;;;;8373616;28;19931;-75
2023/04/21 20:22:49;;;;;;;;;;;13.20;98.10;;;;;;8370548;28;19964;-76
2023/04/21 20:26:51;;;;;;;;;;;13.20;98.60;;;;;;8388295;28;20402;-76
2023/04/21 20:30:52;;;;;;;;;;;13.10;98.60;;;;;;8375773;28;19925;-76
2023/04/21 20:34:54;;;;;;;;;;;13.00;99.90;;;;;;8374157;28;19932;-76
2023/04/21 20:38:56;;;;;;;;;;;12.90;99.90;;;;;;8371444;28;19925;-76
2023/04/21 20:42:57;;;;;;;;;;;12.90;98.50;;;;;;8373655;28;19928;-76
2023/04/21 20:46:59;;;;;;;;;;;12.90;97.70;;;;;;8387343;28;19939;-75
2023/04/21 20:51:01;;;;;;;;;;;12.80;99.90;;;;;;8373940;28;20387;-76
2023/04/21 20:55:03;;;;;;;;;;;12.70;99.90;;;;;;8406760;28;19929;-76
2023/04/21 20:59:05;;;;;;;;;;;12.60;99.90;;;;;;8377252;28;20299;-76
2023/04/21 21:03:08;;;;;;;;;;;12.50;99.90;;;;;;8382056;28;19928;-76
2023/04/21 21:07:10;;;;;;;;;;;12.60;99.90;;;;;;8383592;28;19967;-76
2023/04/21 21:11:12;;;;;;;;;;;12.70;99.90;;;;;;8386136;28;20009;-76
2023/04/21 21:15:14;;;;;;;;;;;12.70;99.90;;;;;;8392019;28;19972;-76
2023/04/21 21:19:15;;;;;;;;;;;12.80;99.90;;;;;;8408073;28;20294;-76
2023/04/21 21:23:17;;;;;;;;;;;12.90;99.90;;;;;;8404931;28;19979;-76
2023/04/21 21:27:18;;;;;;;;;;;12.80;99.90;;;;;;8400094;28;20007;-76
2023/04/21 21:31:20;;;;;;;;;;;12.80;99.90;;;;;;8390551;28;20388;-76
2023/04/21 21:45:42;;;;;;;;;;;12.80;99.90;;;;;;8383035;28;20390;-76
2023/04/21 21:49:44;;;;;;;;;;;12.70;99.90;;;;;;8390773;28;20354;-76
2023/04/21 21:53:45;;;;;;;;;;;12.60;99.90;;;;;;8395513;28;19935;-76
2023/04/21 21:57:47;;;;;;;;;;;12.50;99.80;;;;;;8409509;28;19935;-76
2023/04/21 22:01:50;;;;;;;;;;;12.40;99.90;;;;;;8402432;28;19925;-75
2023/04/21 22:05:51;;;;;;;;;;;12.40;99.90;;;;;;8389896;28;19925;-75
2023/04/21 22:09:53;;;;;;;;;;;12.30;99.90;;;;;;8395354;28;19931;-75
2023/04/21 22:13:55;;;;;;;;;;;12.20;99.90;;;;;;8380249;28;19925;-76
2023/04/21 22:17:59;;;;;;;;;;;12.20;99.90;;;;;;8399571;28;20380;-76
2023/04/21 22:22:01;;;;;;;;;;;12.10;99.70;;;;;;8404533;28;20030;-75
2023/04/21 22:26:02;;;;;;;;;;;12.00;99.90;;;;;;8397727;28;19927;-76
2023/04/21 22:30:04;;;;;;;;;;;11.80;99.70;;;;;;8386755;28;20371;-76
2023/04/21 22:34:06;;;;;;;;;;;11.60;99.60;;;;;;8395989;28;19982;-75
2023/04/21 22:38:08;;;;;;;;;;;11.60;99.60;;;;;;8398116;28;19966;-76
2023/04/21 22:42:09;;;;;;;;;;;11.40;99.10;;;;;;8396857;28;19924;-76
2023/04/21 22:46:11;;;;;;;;;;;11.30;98.70;;;;;;8395506;28;19924;-76
2023/04/21 22:50:14;;;;;;;;;;;11.20;98.90;;;;;;8393484;28;19929;-76
2023/04/21 23:09:25;;;;;;;;;;;10.70;99.20;;;;;;8380127;28;19928;-76
2023/04/21 23:13:27;;;;;;;;;;;10.40;99.80;;;;;;8385717;28;19925;-76
2023/04/21 23:17:29;;;;;;;;;;;10.30;99.80;;;;;;8424220;27;19931;-76
2023/04/21 23:21:31;;;;;;;;;;;10.20;99.70;;;;;;8400188;28;20433;-76
2023/04/21 23:25:32;;;;;;;;;;;10.10;99.40;;;;;;8393011;28;19982;-76
2023/04/21 23:39:47;;;;;;;;;;;9.90;98.40;;;;;;8387621;28;19919;-76
2023/04/21 23:43:49;;;;;;;;;;;9.80;98.50;;;;;;8393779;28;19925;-76
2023/04/21 23:47:50;;;;;;;;;;;9.70;98.20;;;;;;8408429;27;20258;-76
2023/04/21 23:51:52;;;;;;;;;;;9.60;98.60;;;;;;8384619;28;19947;-76
2023/04/21 23:55:54;;;;;;;;;;;9.60;98.80;;;;;;8381603;28;19928;-76
